sensor_id;sensor_type;location;lat;lon;timestamp;temperature;humidity
19037;DHT22;9651;49.138;8.900;2023-02-26T00:01:40;1.70;99.90
19037;DHT22;9651;49.138;8.900;2023-02-26T00:05:44;1.70;99.90
19037;DHT22;9651;49.138;8.900;2023-02-26T00:09:45;1.70;99.90
19037;DHT22;9651;49.138;8.900;2023-02-26T00:13:48;1.70;99.90
19037;DHT22;9651;49.138;8.900;2023-02-26T00:17:54;1.70;99.90
19037;DHT22;9651;49.138;8.900;2023-02-26T00:22:02;1.70;99.90
19037;DHT22;9651;49.138;8.900;2023-02-26T00:26:04;1.60;99.90
19037;DHT22;9651;49.138;8.900;2023-02-26T00:30:09;1.60;99.90
19037;DHT22;9651;49.138;8.900;2023-02-26T00:34:12;1.60;99.90
19037;DHT22;9651;49.138;8.900;2023-02-26T00:38:16;1.50;99.90
19037;DHT22;9651;49.138;8.900;2023-02-26T00:42:19;1.50;99.90
19037;DHT22;9651;49.138;8.900;2023-02-26T00:46:26;1.50;99.90
19037;DHT22;9651;49.138;8.900;2023-02-26T00:50:31;1.50;99.90
19037;DHT22;9651;49.138;8.900;2023-02-26T00:54:34;1.40;99.90
19037;DHT22;9651;49.138;8.900;2023-02-26T00:58:36;1.30;99.90
19037;DHT22;9651;49.138;8.900;2023-02-26T01:02:39;1.30;99.90
19037;DHT22;9651;49.138;8.900;2023-02-26T01:06:43;1.20;99.90
19037;DHT22;9651;49.138;8.900;2023-02-26T01:10:47;1.20;99.90
19037;DHT22;9651;49.138;8.900;2023-02-26T01:14:50;1.10;99.90
19037;DHT22;9651;49.138;8.900;2023-02-26T01:18:55;1.00;99.90
19037;DHT22;9651;49.138;8.900;2023-02-26T01:23:03;0.90;99.90
19037;DHT22;9651;49.138;8.900;2023-02-26T01:27:08;0.90;99.90
19037;DHT22;9651;49.138;8.900;2023-02-26T01:31:17;0.90;99.90
19037;DHT22;9651;49.138;8.900;2023-02-26T01:35:36;0.80;99.90
19037;DHT22;9651;49.138;8.900;2023-02-26T01:39:44;0.80;99.90
19037;DHT22;9651;49.138;8.900;2023-02-26T01:44:03;0.70;99.90
19037;DHT22;9651;49.138;8.900;2023-02-26T01:48:10;0.60;99.90
19037;DHT22;9651;49.138;8.900;2023-02-26T01:57:06;0.40;99.90
19037;DHT22;9651;49.138;8.900;2023-02-26T02:01:11;0.20;99.90
19037;DHT22;9651;49.138;8.900;2023-02-26T02:05:17;0.20;99.90
19037;DHT22;9651;49.138;8.900;2023-02-26T02:09:21;0.10;99.90
19037;DHT22;9651;49.138;8.900;2023-02-26T02:13:37;0.10;99.90
19037;DHT22;9651;49.138;8.900;2023-02-26T02:17:49;-0.10;99.90
19037;DHT22;9651;49.138;8.900;2023-02-26T02:22:07;-0.20;99.90
19037;DHT22;9651;49.138;8.900;2023-02-26T02:26:36;-0.30;99.90
19037;DHT22;9651;49.138;8.900;2023-02-26T02:30:55;-0.30;99.90
19037;DHT22;9651;49.138;8.900;2023-02-26T02:35:02;-0.30;99.90
19037;DHT22;9651;49.138;8.900;2023-02-26T02:39:08;-0.30;99.90
19037;DHT22;9651;49.138;8.900;2023-02-26T02:43:14;-0.20;99.90
19037;DHT22;9651;49.138;8.900;2023-02-26T02:47:19;-0.20;99.90
19037;DHT22;9651;49.138;8.900;2023-02-26T02:51:25;-0.20;99.90
19037;DHT22;9651;49.138;8.900;2023-02-26T02:55:32;-0.20;99.90
19037;DHT22;9651;49.138;8.900;2023-02-26T02:59:40;-0.30;99.90
19037;DHT22;9651;49.138;8.900;2023-02-26T03:03:51;-0.20;99.90
19037;DHT22;9651;49.138;8.900;2023-02-26T03:07:57;-0.20;99.90
19037;DHT22;9651;49.138;8.900;2023-02-26T03:12:00;-0.20;99.90
19037;DHT22;9651;49.138;8.900;2023-02-26T03:16:18;-0.20;99.90
19037;DHT22;9651;49.138;8.900;2023-02-26T03:20:31;-0.30;99.90
19037;DHT22;9651;49.138;8.900;2023-02-26T03:24:36;-0.30;99.90
19037;DHT22;9651;49.138;8.900;2023-02-26T03:28:43;-0.30;99.90
19037;DHT22;9651;49.138;8.900;2023-02-26T03:33:00;-0.30;99.90
19037;DHT22;9651;49.138;8.900;2023-02-26T03:37:08;-0.30;99.90
19037;DHT22;9651;49.138;8.900;2023-02-26T03:41:16;-0.30;99.90
19037;DHT22;9651;49.138;8.900;2023-02-26T03:45:25;-0.30;99.90
19037;DHT22;9651;49.138;8.900;2023-02-26T03:49:31;-0.30;99.90
19037;DHT22;9651;49.138;8.900;2023-02-26T03:53:40;-0.30;99.90
19037;DHT22;9651;49.138;8.900;2023-02-26T03:57:49;-0.30;99.90
19037;DHT22;9651;49.138;8.900;2023-02-26T04:02:26;-0.30;99.90
19037;DHT22;9651;49.138;8.900;2023-02-26T04:06:35;-0.30;99.90
19037;DHT22;9651;49.138;8.900;2023-02-26T04:10:42;-0.30;99.90
19037;DHT22;9651;49.138;8.900;2023-02-26T04:14:44;-0.30;99.90
19037;DHT22;9651;49.138;8.900;2023-02-26T04:18:46;-0.40;99.90
19037;DHT22;9651;49.138;8.900;2023-02-26T04:22:50;-0.50;99.90
19037;DHT22;9651;49.138;8.900;2023-02-26T04:26:57;-0.60;99.90
19037;DHT22;9651;49.138;8.900;2023-02-26T04:30:59;-0.70;99.90
19037;DHT22;9651;49.138;8.900;2023-02-26T04:35:00;-0.80;99.90
19037;DHT22;9651;49.138;8.900;2023-02-26T04:39:04;-0.90;99.90
19037;DHT22;9651;49.138;8.900;2023-02-26T04:43:08;-1.00;99.90
19037;DHT22;9651;49.138;8.900;2023-02-26T04:47:18;-1.10;99.90
19037;DHT22;9651;49.138;8.900;2023-02-26T04:51:21;-1.20;99.90
19037;DHT22;9651;49.138;8.900;2023-02-26T04:55:24;-1.30;99.90
19037;DHT22;9651;49.138;8.900;2023-02-26T04:59:27;-1.40;99.90
19037;DHT22;9651;49.138;8.900;2023-02-26T05:03:31;-1.40;99.90
19037;DHT22;9651;49.138;8.900;2023-02-26T05:07:34;-1.30;99.90
19037;DHT22;9651;49.138;8.900;2023-02-26T05:11:35;-1.30;99.90
19037;DHT22;9651;49.138;8.900;2023-02-26T05:15:42;-1.20;99.90
19037;DHT22;9651;49.138;8.900;2023-02-26T05:19:45;-1.30;99.90
19037;DHT22;9651;49.138;8.900;2023-02-26T05:23:47;-1.30;99.90
19037;DHT22;9651;49.138;8.900;2023-02-26T05:27:51;-1.40;99.90
19037;DHT22;9651;49.138;8.900;2023-02-26T05:31:54;-1.50;99.90
19037;DHT22;9651;49.138;8.900;2023-02-26T05:35:56;-1.50;99.90
19037;DHT22;9651;49.138;8.900;2023-02-26T05:39:58;-1.70;99.90
19037;DHT22;9651;49.138;8.900;2023-02-26T05:44:00;-1.70;99.90
19037;DHT22;9651;49.138;8.900;2023-02-26T05:48:04;-1.70;99.90
19037;DHT22;9651;49.138;8.900;2023-02-26T05:52:05;-1.60;99.90
19037;DHT22;9651;49.138;8.900;2023-02-26T05:56:07;-1.50;99.90
19037;DHT22;9651;49.138;8.900;2023-02-26T06:00:11;-1.40;99.90
19037;DHT22;9651;49.138;8.900;2023-02-26T06:04:17;-1.40;99.90
19037;DHT22;9651;49.138;8.900;2023-02-26T06:08:19;-1.40;99.90
19037;DHT22;9651;49.138;8.900;2023-02-26T06:12:20;-1.50;99.90
19037;DHT22;9651;49.138;8.900;2023-02-26T06:16:23;-1.60;99.90
19037;DHT22;9651;49.138;8.900;2023-02-26T06:20:26;-1.70;99.90
19037;DHT22;9651;49.138;8.900;2023-02-26T06:24:28;-1.80;99.90
19037;DHT22;9651;49.138;8.900;2023-02-26T06:28:30;-1.90;99.90
19037;DHT22;9651;49.138;8.900;2023-02-26T06:32:32;-2.00;99.90
19037;DHT22;9651;49.138;8.900;2023-02-26T06:36:35;-1.90;99.90
19037;DHT22;9651;49.138;8.900;2023-02-26T06:40:37;-1.80;99.90
19037;DHT22;9651;49.138;8.900;2023-02-26T06:44:39;-1.70;99.90
19037;DHT22;9651;49.138;8.900;2023-02-26T06:48:41;-1.60;99.90
19037;DHT22;9651;49.138;8.900;2023-02-26T06:52:44;-1.40;99.90
19037;DHT22;9651;49.138;8.900;2023-02-26T06:56:46;-1.10;99.90
19037;DHT22;9651;49.138;8.900;2023-02-26T07:00:48;-0.80;99.90
19037;DHT22;9651;49.138;8.900;2023-02-26T07:04:50;-0.60;99.90
19037;DHT22;9651;49.138;8.900;2023-02-26T07:08:54;-0.50;99.90
19037;DHT22;9651;49.138;8.900;2023-02-26T07:12:56;-0.40;99.90
19037;DHT22;9651;49.138;8.900;2023-02-26T07:16:58;-0.30;99.90
19037;DHT22;9651;49.138;8.900;2023-02-26T07:21:00;-0.20;99.90
19037;DHT22;9651;49.138;8.900;2023-02-26T07:25:04;-0.10;99.90
19037;DHT22;9651;49.138;8.900;2023-02-26T07:29:06;0.10;99.90
19037;DHT22;9651;49.138;8.900;2023-02-26T07:33:09;0.20;99.90
19037;DHT22;9651;49.138;8.900;2023-02-26T07:37:11;0.20;99.90
19037;DHT22;9651;49.138;8.900;2023-02-26T07:41:14;0.30;99.90
19037;DHT22;9651;49.138;8.900;2023-02-26T07:45:16;0.40;99.90
19037;DHT22;9651;49.138;8.900;2023-02-26T07:49:21;0.60;99.90
19037;DHT22;9651;49.138;8.900;2023-02-26T07:53:23;0.70;99.90
19037;DHT22;9651;49.138;8.900;2023-02-26T07:57:27;0.90;99.90
19037;DHT22;9651;49.138;8.900;2023-02-26T08:01:28;0.90;99.90
19037;DHT22;9651;49.138;8.900;2023-02-26T08:05:30;1.00;99.90
19037;DHT22;9651;49.138;8.900;2023-02-26T08:09:32;1.10;99.90
19037;DHT22;9651;49.138;8.900;2023-02-26T08:13:35;1.30;99.90
19037;DHT22;9651;49.138;8.900;2023-02-26T08:17:37;1.30;99.90
19037;DHT22;9651;49.138;8.900;2023-02-26T08:21:39;1.40;99.90
19037;DHT22;9651;49.138;8.900;2023-02-26T08:25:41;1.40;99.90
19037;DHT22;9651;49.138;8.900;2023-02-26T08:29:44;1.50;99.90
19037;DHT22;9651;49.138;8.900;2023-02-26T08:33:49;1.70;99.90
19037;DHT22;9651;49.138;8.900;2023-02-26T08:37:51;2.00;99.90
19037;DHT22;9651;49.138;8.900;2023-02-26T08:41:54;2.60;99.90
19037;DHT22;9651;49.138;8.900;2023-02-26T08:45:57;3.20;99.90
19037;DHT22;9651;49.138;8.900;2023-02-26T08:50:00;3.90;99.90
19037;DHT22;9651;49.138;8.900;2023-02-26T08:54:02;4.50;99.90
19037;DHT22;9651;49.138;8.900;2023-02-26T08:58:05;5.20;99.90
19037;DHT22;9651;49.138;8.900;2023-02-26T09:02:10;5.30;99.90
19037;DHT22;9651;49.138;8.900;2023-02-26T09:06:12;5.50;99.90
19037;DHT22;9651;49.138;8.900;2023-02-26T09:10:15;5.40;99.90
19037;DHT22;9651;49.138;8.900;2023-02-26T09:14:17;5.00;99.90
19037;DHT22;9651;49.138;8.900;2023-02-26T09:18:20;4.70;99.90
19037;DHT22;9651;49.138;8.900;2023-02-26T09:22:22;4.30;99.90
19037;DHT22;9651;49.138;8.900;2023-02-26T09:26:24;3.90;99.90
19037;DHT22;9651;49.138;8.900;2023-02-26T09:30:27;3.90;99.90
19037;DHT22;9651;49.138;8.900;2023-02-26T09:34:30;3.70;99.90
19037;DHT22;9651;49.138;8.900;2023-02-26T09:38:32;3.40;99.90
19037;DHT22;9651;49.138;8.900;2023-02-26T09:42:47;3.10;99.90
19037;DHT22;9651;49.138;8.900;2023-02-26T09:47:01;3.00;99.90
19037;DHT22;9651;49.138;8.900;2023-02-26T09:51:10;2.80;99.90
19037;DHT22;9651;49.138;8.900;2023-02-26T09:55:16;2.70;99.90
19037;DHT22;9651;49.138;8.900;2023-02-26T09:59:20;2.70;99.90
19037;DHT22;9651;49.138;8.900;2023-02-26T10:03:27;2.70;99.90
19037;DHT22;9651;49.138;8.900;2023-02-26T10:07:36;2.80;99.90
19037;DHT22;9651;49.138;8.900;2023-02-26T10:11:46;2.80;99.90
19037;DHT22;9651;49.138;8.900;2023-02-26T10:15:49;2.90;99.90
19037;DHT22;9651;49.138;8.900;2023-02-26T10:19:55;2.90;99.90
19037;DHT22;9651;49.138;8.900;2023-02-26T10:24:03;3.00;99.90
19037;DHT22;9651;49.138;8.900;2023-02-26T10:28:37;2.80;99.90
19037;DHT22;9651;49.138;8.900;2023-02-26T10:32:47;2.80;99.90
19037;DHT22;9651;49.138;8.900;2023-02-26T10:36:56;2.90;99.90
19037;DHT22;9651;49.138;8.900;2023-02-26T10:41:04;2.80;99.90
19037;DHT22;9651;49.138;8.900;2023-02-26T10:45:27;2.80;99.90
19037;DHT22;9651;49.138;8.900;2023-02-26T10:49:46;2.70;99.90
19037;DHT22;9651;49.138;8.900;2023-02-26T10:53:53;2.60;99.90
19037;DHT22;9651;49.138;8.900;2023-02-26T10:58:03;2.70;99.90
19037;DHT22;9651;49.138;8.900;2023-02-26T11:02:17;2.70;99.90
19037;DHT22;9651;49.138;8.900;2023-02-26T11:06:29;3.00;99.90
19037;DHT22;9651;49.138;8.900;2023-02-26T11:10:40;3.10;99.90
19037;DHT22;9651;49.138;8.900;2023-02-26T11:14:46;3.00;99.90
19037;DHT22;9651;49.138;8.900;2023-02-26T11:18:52;3.00;99.90
19037;DHT22;9651;49.138;8.900;2023-02-26T11:22:56;3.30;99.90
19037;DHT22;9651;49.138;8.900;2023-02-26T11:27:02;3.30;99.90
19037;DHT22;9651;49.138;8.900;2023-02-26T11:31:09;3.20;99.90
19037;DHT22;9651;49.138;8.900;2023-02-26T11:35:13;3.10;99.90
19037;DHT22;9651;49.138;8.900;2023-02-26T11:39:17;3.00;99.90
19037;DHT22;9651;49.138;8.900;2023-02-26T11:43:21;3.00;99.90
19037;DHT22;9651;49.138;8.900;2023-02-26T11:47:27;3.10;99.90
19037;DHT22;9651;49.138;8.900;2023-02-26T11:51:30;3.30;99.90
19037;DHT22;9651;49.138;8.900;2023-02-26T11:55:34;3.40;99.90
19037;DHT22;9651;49.138;8.900;2023-02-26T11:59:39;3.40;99.90
19037;DHT22;9651;49.138;8.900;2023-02-26T12:03:46;3.30;99.90
19037;DHT22;9651;49.138;8.900;2023-02-26T12:07:48;3.30;99.90
19037;DHT22;9651;49.138;8.900;2023-02-26T12:16:37;3.80;99.90
19037;DHT22;9651;49.138;8.900;2023-02-26T12:20:49;4.10;99.90
19037;DHT22;9651;49.138;8.900;2023-02-26T12:25:18;4.10;99.90
19037;DHT22;9651;49.138;8.900;2023-02-26T12:30:01;4.10;99.90
19037;DHT22;9651;49.138;8.900;2023-02-26T12:34:18;4.00;99.90
19037;DHT22;9651;49.138;8.900;2023-02-26T12:38:29;3.90;99.90
19037;DHT22;9651;49.138;8.900;2023-02-26T12:42:42;3.80;99.90
19037;DHT22;9651;49.138;8.900;2023-02-26T12:46:56;3.90;99.90
19037;DHT22;9651;49.138;8.900;2023-02-26T12:51:06;4.10;99.90
19037;DHT22;9651;49.138;8.900;2023-02-26T12:55:23;4.40;99.90
19037;DHT22;9651;49.138;8.900;2023-02-26T13:04:14;4.20;99.90
19037;DHT22;9651;49.138;8.900;2023-02-26T13:08:25;4.00;99.90
19037;DHT22;9651;49.138;8.900;2023-02-26T13:12:41;4.30;99.90
19037;DHT22;9651;49.138;8.900;2023-02-26T13:16:49;4.50;99.90
19037;DHT22;9651;49.138;8.900;2023-02-26T13:20:56;4.80;99.90
19037;DHT22;9651;49.138;8.900;2023-02-26T13:25:03;5.10;99.90
19037;DHT22;9651;49.138;8.900;2023-02-26T13:29:10;4.80;99.90
19037;DHT22;9651;49.138;8.900;2023-02-26T13:33:16;4.50;99.90
19037;DHT22;9651;49.138;8.900;2023-02-26T13:37:23;4.30;99.90
19037;DHT22;9651;49.138;8.900;2023-02-26T13:41:33;4.30;99.90
19037;DHT22;9651;49.138;8.900;2023-02-26T13:45:45;4.20;99.90
19037;DHT22;9651;49.138;8.900;2023-02-26T13:50:02;4.10;99.90
19037;DHT22;9651;49.138;8.900;2023-02-26T13:54:28;4.10;99.90
19037;DHT22;9651;49.138;8.900;2023-02-26T13:58:37;4.20;99.90
19037;DHT22;9651;49.138;8.900;2023-02-26T14:02:47;4.40;99.90
19037;DHT22;9651;49.138;8.900;2023-02-26T14:06:50;4.40;99.90
19037;DHT22;9651;49.138;8.900;2023-02-26T14:10:56;4.30;99.90
19037;DHT22;9651;49.138;8.900;2023-02-26T14:15:18;4.30;99.90
19037;DHT22;9651;49.138;8.900;2023-02-26T14:19:28;4.30;99.90
19037;DHT22;9651;49.138;8.900;2023-02-26T14:23:35;4.30;99.90
19037;DHT22;9651;49.138;8.900;2023-02-26T14:27:39;4.30;99.90
19037;DHT22;9651;49.138;8.900;2023-02-26T14:31:59;4.40;99.90
19037;DHT22;9651;49.138;8.900;2023-02-26T14:36:05;4.50;99.90
19037;DHT22;9651;49.138;8.900;2023-02-26T14:40:15;4.60;99.90
19037;DHT22;9651;49.138;8.900;2023-02-26T14:44:22;4.50;99.90
19037;DHT22;9651;49.138;8.900;2023-02-26T14:48:26;4.60;99.90
19037;DHT22;9651;49.138;8.900;2023-02-26T14:57:02;4.20;99.90
19037;DHT22;9651;49.138;8.900;2023-02-26T15:01:18;4.10;99.90
19037;DHT22;9651;49.138;8.900;2023-02-26T15:05:34;3.90;99.90
19037;DHT22;9651;49.138;8.900;2023-02-26T15:09:51;3.80;99.90
19037;DHT22;9651;49.138;8.900;2023-02-26T15:14:16;3.80;99.90
19037;DHT22;9651;49.138;8.900;2023-02-26T15:18:51;3.90;99.90
19037;DHT22;9651;49.138;8.900;2023-02-26T15:23:26;3.80;99.90
19037;DHT22;9651;49.138;8.900;2023-02-26T15:27:32;3.70;99.90
19037;DHT22;9651;49.138;8.900;2023-02-26T15:31:40;3.60;99.90
19037;DHT22;9651;49.138;8.900;2023-02-26T15:35:43;3.60;99.90
19037;DHT22;9651;49.138;8.900;2023-02-26T15:39:48;3.60;99.90
19037;DHT22;9651;49.138;8.900;2023-02-26T15:43:57;3.70;99.90
19037;DHT22;9651;49.138;8.900;2023-02-26T15:48:03;3.70;99.90
19037;DHT22;9651;49.138;8.900;2023-02-26T15:52:07;3.70;99.90
19037;DHT22;9651;49.138;8.900;2023-02-26T15:56:14;3.70;99.90
19037;DHT22;9651;49.138;8.900;2023-02-26T16:00:21;3.60;99.90
19037;DHT22;9651;49.138;8.900;2023-02-26T16:04:25;3.40;99.90
19037;DHT22;9651;49.138;8.900;2023-02-26T16:08:27;3.30;99.90
19037;DHT22;9651;49.138;8.900;2023-02-26T16:12:34;3.20;99.90
19037;DHT22;9651;49.138;8.900;2023-02-26T16:16:41;3.00;99.90
19037;DHT22;9651;49.138;8.900;2023-02-26T16:20:46;3.00;99.90
19037;DHT22;9651;49.138;8.900;2023-02-26T16:24:52;3.10;99.90
19037;DHT22;9651;49.138;8.900;2023-02-26T16:28:56;3.00;99.90
19037;DHT22;9651;49.138;8.900;2023-02-26T16:33:02;2.90;99.90
19037;DHT22;9651;49.138;8.900;2023-02-26T16:37:25;3.00;99.90
19037;DHT22;9651;49.138;8.900;2023-02-26T16:41:30;2.90;99.90
19037;DHT22;9651;49.138;8.900;2023-02-26T16:45:43;2.90;99.90
19037;DHT22;9651;49.138;8.900;2023-02-26T16:49:50;2.80;99.90
19037;DHT22;9651;49.138;8.900;2023-02-26T16:53:55;2.80;99.90
19037;DHT22;9651;49.138;8.900;2023-02-26T16:57:59;2.70;99.90
19037;DHT22;9651;49.138;8.900;2023-02-26T17:02:12;2.70;99.90
19037;DHT22;9651;49.138;8.900;2023-02-26T17:06:16;2.70;99.90
19037;DHT22;9651;49.138;8.900;2023-02-26T17:10:24;2.70;99.90
19037;DHT22;9651;49.138;8.900;2023-02-26T17:14:35;2.60;99.90
19037;DHT22;9651;49.138;8.900;2023-02-26T17:18:39;2.90;99.90
19037;DHT22;9651;49.138;8.900;2023-02-26T17:22:43;2.80;99.90
19037;DHT22;9651;49.138;8.900;2023-02-26T17:26:46;2.70;99.90
19037;DHT22;9651;49.138;8.900;2023-02-26T17:30:48;2.70;99.90
19037;DHT22;9651;49.138;8.900;2023-02-26T17:34:50;2.70;99.90
19037;DHT22;9651;49.138;8.900;2023-02-26T17:38:54;2.70;99.90
19037;DHT22;9651;49.138;8.900;2023-02-26T17:42:56;2.60;99.90
19037;DHT22;9651;49.138;8.900;2023-02-26T17:46:59;2.50;99.90
19037;DHT22;9651;49.138;8.900;2023-02-26T17:51:01;2.50;99.90
19037;DHT22;9651;49.138;8.900;2023-02-26T17:55:05;2.60;99.90
19037;DHT22;9651;49.138;8.900;2023-02-26T17:59:08;2.60;99.90
19037;DHT22;9651;49.138;8.900;2023-02-26T18:03:12;2.50;99.90
19037;DHT22;9651;49.138;8.900;2023-02-26T18:07:15;2.30;99.90
19037;DHT22;9651;49.138;8.900;2023-02-26T18:11:19;2.40;99.90
19037;DHT22;9651;49.138;8.900;2023-02-26T18:15:23;2.30;99.90
19037;DHT22;9651;49.138;8.900;2023-02-26T18:19:25;2.20;99.90
19037;DHT22;9651;49.138;8.900;2023-02-26T18:23:27;2.20;99.90
19037;DHT22;9651;49.138;8.900;2023-02-26T18:27:31;2.00;99.90
19037;DHT22;9651;49.138;8.900;2023-02-26T18:31:32;2.00;99.90
19037;DHT22;9651;49.138;8.900;2023-02-26T18:35:34;1.80;99.90
19037;DHT22;9651;49.138;8.900;2023-02-26T18:39:36;1.90;99.90
19037;DHT22;9651;49.138;8.900;2023-02-26T18:43:40;1.90;99.90
19037;DHT22;9651;49.138;8.900;2023-02-26T18:47:42;1.90;99.90
19037;DHT22;9651;49.138;8.900;2023-02-26T18:51:47;1.90;99.90
19037;DHT22;9651;49.138;8.900;2023-02-26T18:55:51;1.90;99.90
19037;DHT22;9651;49.138;8.900;2023-02-26T18:59:55;1.90;99.90
19037;DHT22;9651;49.138;8.900;2023-02-26T19:03:57;1.90;99.90
19037;DHT22;9651;49.138;8.900;2023-02-26T19:07:58;1.70;99.90
19037;DHT22;9651;49.138;8.900;2023-02-26T19:12:01;1.60;99.90
19037;DHT22;9651;49.138;8.900;2023-02-26T19:16:05;1.60;99.90
19037;DHT22;9651;49.138;8.900;2023-02-26T19:20:08;1.50;99.90
19037;DHT22;9651;49.138;8.900;2023-02-26T19:24:12;1.40;99.90
19037;DHT22;9651;49.138;8.900;2023-02-26T19:28:14;1.40;99.90
19037;DHT22;9651;49.138;8.900;2023-02-26T19:32:17;1.40;99.90
19037;DHT22;9651;49.138;8.900;2023-02-26T19:36:19;1.30;99.90
19037;DHT22;9651;49.138;8.900;2023-02-26T19:40:22;1.20;99.90
19037;DHT22;9651;49.138;8.900;2023-02-26T19:44:24;1.10;99.90
19037;DHT22;9651;49.138;8.900;2023-02-26T19:48:29;1.10;99.90
19037;DHT22;9651;49.138;8.900;2023-02-26T19:52:31;1.10;99.90
19037;DHT22;9651;49.138;8.900;2023-02-26T19:56:33;1.00;99.90
19037;DHT22;9651;49.138;8.900;2023-02-26T20:00:35;1.00;99.90
19037;DHT22;9651;49.138;8.900;2023-02-26T20:04:39;1.10;99.90
19037;DHT22;9651;49.138;8.900;2023-02-26T20:08:41;0.90;99.90
19037;DHT22;9651;49.138;8.900;2023-02-26T20:12:43;0.90;99.90
19037;DHT22;9651;49.138;8.900;2023-02-26T20:16:45;0.80;99.90
19037;DHT22;9651;49.138;8.900;2023-02-26T20:20:49;0.70;99.90
19037;DHT22;9651;49.138;8.900;2023-02-26T20:24:51;0.70;99.90
19037;DHT22;9651;49.138;8.900;2023-02-26T20:28:53;0.70;99.90
19037;DHT22;9651;49.138;8.900;2023-02-26T20:32:55;0.70;99.90
19037;DHT22;9651;49.138;8.900;2023-02-26T20:36:58;0.70;99.90
19037;DHT22;9651;49.138;8.900;2023-02-26T20:41:00;0.70;99.90
19037;DHT22;9651;49.138;8.900;2023-02-26T20:45:03;0.60;99.90
19037;DHT22;9651;49.138;8.900;2023-02-26T20:49:06;0.60;99.90
19037;DHT22;9651;49.138;8.900;2023-02-26T20:53:12;0.60;99.90
19037;DHT22;9651;49.138;8.900;2023-02-26T20:57:14;0.60;99.90
19037;DHT22;9651;49.138;8.900;2023-02-26T21:01:16;0.50;99.90
19037;DHT22;9651;49.138;8.900;2023-02-26T21:05:18;0.50;99.90
19037;DHT22;9651;49.138;8.900;2023-02-26T21:09:21;0.50;99.90
19037;DHT22;9651;49.138;8.900;2023-02-26T21:13:23;0.40;99.90
19037;DHT22;9651;49.138;8.900;2023-02-26T21:17:26;0.40;99.90
19037;DHT22;9651;49.138;8.900;2023-02-26T21:21:28;0.50;99.90
19037;DHT22;9651;49.138;8.900;2023-02-26T21:25:31;0.40;99.90
19037;DHT22;9651;49.138;8.900;2023-02-26T21:29:34;0.50;99.90
19037;DHT22;9651;49.138;8.900;2023-02-26T21:33:35;0.40;99.90
19037;DHT22;9651;49.138;8.900;2023-02-26T21:37:37;0.40;99.90
19037;DHT22;9651;49.138;8.900;2023-02-26T21:41:42;0.40;99.90
19037;DHT22;9651;49.138;8.900;2023-02-26T21:45:46;0.40;99.90
19037;DHT22;9651;49.138;8.900;2023-02-26T21:49:51;0.30;99.90
19037;DHT22;9651;49.138;8.900;2023-02-26T21:53:53;0.20;99.90
19037;DHT22;9651;49.138;8.900;2023-02-26T21:57:57;0.20;99.90
19037;DHT22;9651;49.138;8.900;2023-02-26T22:02:02;0.20;99.90
19037;DHT22;9651;49.138;8.900;2023-02-26T22:06:05;0.20;99.90
19037;DHT22;9651;49.138;8.900;2023-02-26T22:10:09;0.20;99.90
19037;DHT22;9651;49.138;8.900;2023-02-26T22:14:16;0.20;99.90
19037;DHT22;9651;49.138;8.900;2023-02-26T22:18:22;0.20;99.90
19037;DHT22;9651;49.138;8.900;2023-02-26T22:22:25;0.20;99.90
19037;DHT22;9651;49.138;8.900;2023-02-26T22:26:27;0.20;99.90
19037;DHT22;9651;49.138;8.900;2023-02-26T22:30:31;0.20;99.90
19037;DHT22;9651;49.138;8.900;2023-02-26T22:34:34;0.10;99.90
19037;DHT22;9651;49.138;8.900;2023-02-26T22:38:36;0.10;99.90
19037;DHT22;9651;49.138;8.900;2023-02-26T22:42:39;0.00;99.90
19037;DHT22;9651;49.138;8.900;2023-02-26T22:46:42;0.00;99.90
19037;DHT22;9651;49.138;8.900;2023-02-26T22:50:45;-0.10;99.90
19037;DHT22;9651;49.138;8.900;2023-02-26T22:54:49;0.00;99.90
19037;DHT22;9651;49.138;8.900;2023-02-26T22:58:51;-0.10;99.90
19037;DHT22;9651;49.138;8.900;2023-02-26T23:02:54;-0.10;99.90
19037;DHT22;9651;49.138;8.900;2023-02-26T23:06:56;-0.10;99.90
19037;DHT22;9651;49.138;8.900;2023-02-26T23:11:00;-0.10;99.90
19037;DHT22;9651;49.138;8.900;2023-02-26T23:15:02;-0.10;99.90
19037;DHT22;9651;49.138;8.900;2023-02-26T23:19:06;-0.20;99.90
19037;DHT22;9651;49.138;8.900;2023-02-26T23:23:12;-0.20;99.90
19037;DHT22;9651;49.138;8.900;2023-02-26T23:27:14;-0.20;99.90
19037;DHT22;9651;49.138;8.900;2023-02-26T23:31:16;-0.20;99.90
19037;DHT22;9651;49.138;8.900;2023-02-26T23:35:20;-0.20;99.90
19037;DHT22;9651;49.138;8.900;2023-02-26T23:39:22;-0.20;99.90
19037;DHT22;9651;49.138;8.900;2023-02-26T23:43:25;-0.10;99.90
19037;DHT22;9651;49.138;8.900;2023-02-26T23:47:27;-0.10;99.90
19037;DHT22;9651;49.138;8.900;2023-02-26T23:51:30;-0.20;99.90
19037;DHT22;9651;49.138;8.900;2023-02-26T23:55:32;-0.10;99.90
19037;DHT22;9651;49.138;8.900;2023-02-26T23:59:34;-0.20;99.90
